sensor_id;sensor_type;location;lat;lon;timestamp;P1;durP1;ratioP1;P2;durP2;ratioP2
3465;SDS011;1747;48.884;9.160;2023-01-29T00:01:57;5.57;;;3.88;;
3465;SDS011;1747;48.884;9.160;2023-01-29T00:04:24;5.22;;;3.80;;
3465;SDS011;1747;48.884;9.160;2023-01-29T00:06:51;7.20;;;3.90;;
3465;SDS011;1747;48.884;9.160;2023-01-29T00:09:18;6.03;;;3.90;;
3465;SDS011;1747;48.884;9.160;2023-01-29T00:11:46;8.25;;;4.15;;
3465;SDS011;1747;48.884;9.160;2023-01-29T00:14:13;5.10;;;3.65;;
3465;SDS011;1747;48.884;9.160;2023-01-29T00:16:40;5.10;;;4.13;;
3465;SDS011;1747;48.884;9.160;2023-01-29T00:19:07;6.63;;;4.43;;
3465;SDS011;1747;48.884;9.160;2023-01-29T00:21:34;8.90;;;4.65;;
3465;SDS011;1747;48.884;9.160;2023-01-29T00:24:02;7.90;;;4.15;;
3465;SDS011;1747;48.884;9.160;2023-01-29T00:26:29;7.45;;;4.55;;
3465;SDS011;1747;48.884;9.160;2023-01-29T00:28:57;11.35;;;4.30;;
3465;SDS011;1747;48.884;9.160;2023-01-29T00:31:26;7.00;;;4.10;;
3465;SDS011;1747;48.884;9.160;2023-01-29T00:33:53;8.30;;;4.25;;
3465;SDS011;1747;48.884;9.160;2023-01-29T00:36:20;7.55;;;4.47;;
3465;SDS011;1747;48.884;9.160;2023-01-29T00:38:52;6.97;;;4.03;;
3465;SDS011;1747;48.884;9.160;2023-01-29T00:41:22;6.90;;;4.15;;
3465;SDS011;1747;48.884;9.160;2023-01-29T00:44:10;6.03;;;4.05;;
3465;SDS011;1747;48.884;9.160;2023-01-29T00:46:55;6.85;;;4.80;;
3465;SDS011;1747;48.884;9.160;2023-01-29T00:49:22;6.65;;;4.00;;
3465;SDS011;1747;48.884;9.160;2023-01-29T00:51:48;5.45;;;3.80;;
3465;SDS011;1747;48.884;9.160;2023-01-29T00:54:29;5.35;;;3.50;;
3465;SDS011;1747;48.884;9.160;2023-01-29T00:56:56;6.93;;;4.05;;
3465;SDS011;1747;48.884;9.160;2023-01-29T00:59:24;5.97;;;3.90;;
3465;SDS011;1747;48.884;9.160;2023-01-29T01:01:51;6.63;;;4.25;;
3465;SDS011;1747;48.884;9.160;2023-01-29T01:04:35;10.90;;;3.95;;
3465;SDS011;1747;48.884;9.160;2023-01-29T01:07:02;5.70;;;3.95;;
3465;SDS011;1747;48.884;9.160;2023-01-29T01:09:29;9.38;;;4.18;;
3465;SDS011;1747;48.884;9.160;2023-01-29T01:12:13;5.55;;;3.90;;
3465;SDS011;1747;48.884;9.160;2023-01-29T01:14:41;5.40;;;3.75;;
3465;SDS011;1747;48.884;9.160;2023-01-29T01:17:08;5.63;;;4.20;;
3465;SDS011;1747;48.884;9.160;2023-01-29T01:19:35;5.97;;;3.83;;
3465;SDS011;1747;48.884;9.160;2023-01-29T01:22:02;6.38;;;3.88;;
3465;SDS011;1747;48.884;9.160;2023-01-29T01:24:29;10.82;;;4.68;;
3465;SDS011;1747;48.884;9.160;2023-01-29T01:26:55;9.05;;;4.72;;
3465;SDS011;1747;48.884;9.160;2023-01-29T01:29:22;7.95;;;4.53;;
3465;SDS011;1747;48.884;9.160;2023-01-29T01:31:51;6.60;;;3.80;;
3465;SDS011;1747;48.884;9.160;2023-01-29T01:34:18;6.03;;;3.75;;
3465;SDS011;1747;48.884;9.160;2023-01-29T01:36:46;5.53;;;3.72;;
3465;SDS011;1747;48.884;9.160;2023-01-29T01:39:13;5.78;;;3.63;;
3465;SDS011;1747;48.884;9.160;2023-01-29T01:41:39;7.13;;;3.90;;
3465;SDS011;1747;48.884;9.160;2023-01-29T01:44:06;5.85;;;3.67;;
3465;SDS011;1747;48.884;9.160;2023-01-29T01:46:54;7.22;;;4.20;;
3465;SDS011;1747;48.884;9.160;2023-01-29T01:49:21;7.72;;;4.18;;
3465;SDS011;1747;48.884;9.160;2023-01-29T01:51:49;7.43;;;4.10;;
3465;SDS011;1747;48.884;9.160;2023-01-29T01:54:18;4.45;;;3.55;;
3465;SDS011;1747;48.884;9.160;2023-01-29T01:56:49;5.97;;;3.97;;
3465;SDS011;1747;48.884;9.160;2023-01-29T01:59:19;5.32;;;4.00;;
3465;SDS011;1747;48.884;9.160;2023-01-29T02:01:50;6.50;;;4.35;;
3465;SDS011;1747;48.884;9.160;2023-01-29T02:04:21;5.50;;;3.60;;
3465;SDS011;1747;48.884;9.160;2023-01-29T02:07:08;5.45;;;3.67;;
3465;SDS011;1747;48.884;9.160;2023-01-29T02:09:57;7.00;;;3.53;;
3465;SDS011;1747;48.884;9.160;2023-01-29T02:12:28;5.50;;;3.90;;
3465;SDS011;1747;48.884;9.160;2023-01-29T02:14:56;6.78;;;4.35;;
3465;SDS011;1747;48.884;9.160;2023-01-29T02:17:23;7.15;;;3.85;;
3465;SDS011;1747;48.884;9.160;2023-01-29T02:19:52;6.60;;;4.32;;
3465;SDS011;1747;48.884;9.160;2023-01-29T02:22:28;7.65;;;4.07;;
3465;SDS011;1747;48.884;9.160;2023-01-29T02:25:24;5.18;;;3.50;;
3465;SDS011;1747;48.884;9.160;2023-01-29T02:28:07;5.03;;;3.53;;
3465;SDS011;1747;48.884;9.160;2023-01-29T02:30:40;7.85;;;4.45;;
3465;SDS011;1747;48.884;9.160;2023-01-29T02:33:13;7.30;;;3.97;;
3465;SDS011;1747;48.884;9.160;2023-01-29T02:35:50;7.30;;;4.93;;
3465;SDS011;1747;48.884;9.160;2023-01-29T02:38:26;6.95;;;4.85;;
3465;SDS011;1747;48.884;9.160;2023-01-29T02:41:00;9.60;;;5.63;;
3465;SDS011;1747;48.884;9.160;2023-01-29T02:43:34;8.20;;;5.30;;
3465;SDS011;1747;48.884;9.160;2023-01-29T02:46:09;7.97;;;5.10;;
3465;SDS011;1747;48.884;9.160;2023-01-29T02:48:42;7.28;;;4.82;;
3465;SDS011;1747;48.884;9.160;2023-01-29T02:51:16;7.75;;;4.30;;
3465;SDS011;1747;48.884;9.160;2023-01-29T02:53:47;6.45;;;4.30;;
3465;SDS011;1747;48.884;9.160;2023-01-29T02:56:25;11.63;;;4.75;;
3465;SDS011;1747;48.884;9.160;2023-01-29T02:58:58;5.95;;;3.88;;
3465;SDS011;1747;48.884;9.160;2023-01-29T03:01:28;6.50;;;3.75;;
3465;SDS011;1747;48.884;9.160;2023-01-29T03:04:00;8.88;;;5.88;;
3465;SDS011;1747;48.884;9.160;2023-01-29T03:06:31;9.32;;;4.20;;
3465;SDS011;1747;48.884;9.160;2023-01-29T03:09:01;5.97;;;3.90;;
3465;SDS011;1747;48.884;9.160;2023-01-29T03:11:33;7.97;;;4.53;;
3465;SDS011;1747;48.884;9.160;2023-01-29T03:14:06;6.45;;;4.25;;
3465;SDS011;1747;48.884;9.160;2023-01-29T03:16:38;6.80;;;4.40;;
3465;SDS011;1747;48.884;9.160;2023-01-29T03:19:08;6.68;;;4.20;;
3465;SDS011;1747;48.884;9.160;2023-01-29T03:21:41;6.68;;;4.15;;
3465;SDS011;1747;48.884;9.160;2023-01-29T03:24:20;8.80;;;3.92;;
3465;SDS011;1747;48.884;9.160;2023-01-29T03:27:09;6.82;;;3.60;;
3465;SDS011;1747;48.884;9.160;2023-01-29T03:29:58;5.57;;;3.70;;
3465;SDS011;1747;48.884;9.160;2023-01-29T03:32:44;6.53;;;3.88;;
3465;SDS011;1747;48.884;9.160;2023-01-29T03:35:13;6.28;;;3.70;;
3465;SDS011;1747;48.884;9.160;2023-01-29T03:37:45;9.13;;;4.30;;
3465;SDS011;1747;48.884;9.160;2023-01-29T03:40:13;7.05;;;4.20;;
3465;SDS011;1747;48.884;9.160;2023-01-29T03:42:43;8.55;;;4.57;;
3465;SDS011;1747;48.884;9.160;2023-01-29T03:45:22;6.85;;;3.53;;
3465;SDS011;1747;48.884;9.160;2023-01-29T03:47:55;5.88;;;3.80;;
3465;SDS011;1747;48.884;9.160;2023-01-29T03:50:31;5.72;;;3.80;;
3465;SDS011;1747;48.884;9.160;2023-01-29T03:53:05;8.52;;;4.20;;
3465;SDS011;1747;48.884;9.160;2023-01-29T03:55:40;7.05;;;4.15;;
3465;SDS011;1747;48.884;9.160;2023-01-29T03:58:14;6.40;;;4.10;;
3465;SDS011;1747;48.884;9.160;2023-01-29T04:00:51;7.43;;;4.05;;
3465;SDS011;1747;48.884;9.160;2023-01-29T04:03:22;8.00;;;3.60;;
3465;SDS011;1747;48.884;9.160;2023-01-29T04:05:55;6.32;;;4.05;;
3465;SDS011;1747;48.884;9.160;2023-01-29T04:08:30;6.50;;;3.85;;
3465;SDS011;1747;48.884;9.160;2023-01-29T04:11:00;10.00;;;4.55;;
3465;SDS011;1747;48.884;9.160;2023-01-29T04:13:33;6.53;;;4.50;;
3465;SDS011;1747;48.884;9.160;2023-01-29T04:16:03;6.80;;;4.40;;
3465;SDS011;1747;48.884;9.160;2023-01-29T04:18:32;6.57;;;4.05;;
3465;SDS011;1747;48.884;9.160;2023-01-29T04:20:59;7.50;;;3.85;;
3465;SDS011;1747;48.884;9.160;2023-01-29T04:23:26;12.10;;;4.13;;
3465;SDS011;1747;48.884;9.160;2023-01-29T04:25:59;7.18;;;4.05;;
3465;SDS011;1747;48.884;9.160;2023-01-29T04:28:40;6.10;;;3.78;;
3465;SDS011;1747;48.884;9.160;2023-01-29T04:31:18;8.35;;;4.40;;
3465;SDS011;1747;48.884;9.160;2023-01-29T04:33:49;11.43;;;4.55;;
3465;SDS011;1747;48.884;9.160;2023-01-29T04:36:26;6.25;;;3.67;;
3465;SDS011;1747;48.884;9.160;2023-01-29T04:39:01;6.32;;;3.95;;
3465;SDS011;1747;48.884;9.160;2023-01-29T04:41:39;6.30;;;4.10;;
3465;SDS011;1747;48.884;9.160;2023-01-29T04:44:15;7.40;;;4.13;;
3465;SDS011;1747;48.884;9.160;2023-01-29T04:46:48;7.22;;;3.58;;
3465;SDS011;1747;48.884;9.160;2023-01-29T04:49:27;5.72;;;3.63;;
3465;SDS011;1747;48.884;9.160;2023-01-29T04:52:00;7.82;;;3.83;;
3465;SDS011;1747;48.884;9.160;2023-01-29T04:54:38;6.93;;;4.60;;
3465;SDS011;1747;48.884;9.160;2023-01-29T04:57:17;6.38;;;3.60;;
3465;SDS011;1747;48.884;9.160;2023-01-29T04:59:49;6.40;;;3.58;;
3465;SDS011;1747;48.884;9.160;2023-01-29T05:02:23;6.75;;;3.90;;
3465;SDS011;1747;48.884;9.160;2023-01-29T05:04:53;6.32;;;3.60;;
3465;SDS011;1747;48.884;9.160;2023-01-29T05:07:21;6.95;;;4.15;;
3465;SDS011;1747;48.884;9.160;2023-01-29T05:09:49;7.30;;;3.80;;
3465;SDS011;1747;48.884;9.160;2023-01-29T05:12:16;5.60;;;3.60;;
3465;SDS011;1747;48.884;9.160;2023-01-29T05:14:44;5.85;;;3.92;;
3465;SDS011;1747;48.884;9.160;2023-01-29T05:17:13;7.05;;;3.92;;
3465;SDS011;1747;48.884;9.160;2023-01-29T05:19:43;8.45;;;4.30;;
3465;SDS011;1747;48.884;9.160;2023-01-29T05:22:12;7.50;;;3.95;;
3465;SDS011;1747;48.884;9.160;2023-01-29T05:24:42;6.22;;;3.92;;
3465;SDS011;1747;48.884;9.160;2023-01-29T05:27:10;9.00;;;4.35;;
3465;SDS011;1747;48.884;9.160;2023-01-29T05:29:59;8.48;;;4.07;;
3465;SDS011;1747;48.884;9.160;2023-01-29T05:32:26;5.85;;;3.65;;
3465;SDS011;1747;48.884;9.160;2023-01-29T05:34:54;7.22;;;4.00;;
3465;SDS011;1747;48.884;9.160;2023-01-29T05:37:21;7.45;;;4.10;;
3465;SDS011;1747;48.884;9.160;2023-01-29T05:39:48;6.10;;;3.55;;
3465;SDS011;1747;48.884;9.160;2023-01-29T05:42:15;8.40;;;4.10;;
3465;SDS011;1747;48.884;9.160;2023-01-29T05:44:42;6.90;;;4.28;;
3465;SDS011;1747;48.884;9.160;2023-01-29T05:47:08;5.65;;;3.78;;
3465;SDS011;1747;48.884;9.160;2023-01-29T05:49:35;6.18;;;3.83;;
3465;SDS011;1747;48.884;9.160;2023-01-29T05:52:04;6.50;;;3.65;;
3465;SDS011;1747;48.884;9.160;2023-01-29T05:54:30;6.85;;;3.75;;
3465;SDS011;1747;48.884;9.160;2023-01-29T05:56:57;7.13;;;4.10;;
3465;SDS011;1747;48.884;9.160;2023-01-29T05:59:24;7.30;;;3.47;;
3465;SDS011;1747;48.884;9.160;2023-01-29T06:01:51;8.32;;;4.22;;
3465;SDS011;1747;48.884;9.160;2023-01-29T06:04:17;7.43;;;4.55;;
3465;SDS011;1747;48.884;9.160;2023-01-29T06:06:44;7.82;;;3.95;;
3465;SDS011;1747;48.884;9.160;2023-01-29T06:09:12;9.63;;;4.30;;
3465;SDS011;1747;48.884;9.160;2023-01-29T06:11:39;7.43;;;4.57;;
3465;SDS011;1747;48.884;9.160;2023-01-29T06:14:06;8.98;;;4.25;;
3465;SDS011;1747;48.884;9.160;2023-01-29T06:16:33;6.65;;;4.30;;
3465;SDS011;1747;48.884;9.160;2023-01-29T06:19:00;8.00;;;4.57;;
3465;SDS011;1747;48.884;9.160;2023-01-29T06:21:27;6.22;;;3.97;;
3465;SDS011;1747;48.884;9.160;2023-01-29T06:23:53;7.38;;;4.10;;
3465;SDS011;1747;48.884;9.160;2023-01-29T06:26:21;7.95;;;4.45;;
3465;SDS011;1747;48.884;9.160;2023-01-29T06:28:48;8.27;;;4.18;;
3465;SDS011;1747;48.884;9.160;2023-01-29T06:31:16;8.00;;;4.40;;
3465;SDS011;1747;48.884;9.160;2023-01-29T06:33:43;8.63;;;4.25;;
3465;SDS011;1747;48.884;9.160;2023-01-29T06:36:10;6.85;;;4.30;;
3465;SDS011;1747;48.884;9.160;2023-01-29T06:38:36;8.55;;;4.65;;
3465;SDS011;1747;48.884;9.160;2023-01-29T06:41:07;6.90;;;4.28;;
3465;SDS011;1747;48.884;9.160;2023-01-29T06:43:38;8.23;;;4.25;;
3465;SDS011;1747;48.884;9.160;2023-01-29T06:46:05;7.97;;;4.47;;
3465;SDS011;1747;48.884;9.160;2023-01-29T06:48:33;7.85;;;4.05;;
3465;SDS011;1747;48.884;9.160;2023-01-29T06:51:00;6.40;;;4.38;;
3465;SDS011;1747;48.884;9.160;2023-01-29T06:53:28;7.60;;;4.25;;
3465;SDS011;1747;48.884;9.160;2023-01-29T06:55:55;5.78;;;4.30;;
3465;SDS011;1747;48.884;9.160;2023-01-29T06:58:22;9.00;;;4.72;;
3465;SDS011;1747;48.884;9.160;2023-01-29T07:00:50;7.70;;;4.28;;
3465;SDS011;1747;48.884;9.160;2023-01-29T07:03:17;8.05;;;4.13;;
3465;SDS011;1747;48.884;9.160;2023-01-29T07:05:54;8.13;;;4.70;;
3465;SDS011;1747;48.884;9.160;2023-01-29T07:08:20;5.53;;;3.72;;
3465;SDS011;1747;48.884;9.160;2023-01-29T07:10:47;7.95;;;4.00;;
3465;SDS011;1747;48.884;9.160;2023-01-29T07:13:15;6.00;;;4.15;;
3465;SDS011;1747;48.884;9.160;2023-01-29T07:15:42;6.85;;;4.30;;
3465;SDS011;1747;48.884;9.160;2023-01-29T07:18:10;8.20;;;4.82;;
3465;SDS011;1747;48.884;9.160;2023-01-29T07:20:37;8.40;;;4.43;;
3465;SDS011;1747;48.884;9.160;2023-01-29T07:23:05;7.65;;;4.65;;
3465;SDS011;1747;48.884;9.160;2023-01-29T07:25:34;8.10;;;4.82;;
3465;SDS011;1747;48.884;9.160;2023-01-29T07:28:01;6.63;;;4.22;;
3465;SDS011;1747;48.884;9.160;2023-01-29T07:30:29;6.80;;;4.32;;
3465;SDS011;1747;48.884;9.160;2023-01-29T07:32:59;7.88;;;4.75;;
3465;SDS011;1747;48.884;9.160;2023-01-29T07:35:28;8.13;;;4.72;;
3465;SDS011;1747;48.884;9.160;2023-01-29T07:37:55;7.25;;;4.85;;
3465;SDS011;1747;48.884;9.160;2023-01-29T07:40:22;6.95;;;4.70;;
3465;SDS011;1747;48.884;9.160;2023-01-29T07:42:49;5.40;;;4.15;;
3465;SDS011;1747;48.884;9.160;2023-01-29T07:45:15;8.93;;;4.43;;
3465;SDS011;1747;48.884;9.160;2023-01-29T07:47:42;7.05;;;4.70;;
3465;SDS011;1747;48.884;9.160;2023-01-29T07:50:10;7.82;;;4.38;;
3465;SDS011;1747;48.884;9.160;2023-01-29T07:52:38;7.35;;;4.50;;
3465;SDS011;1747;48.884;9.160;2023-01-29T07:55:05;10.35;;;5.10;;
3465;SDS011;1747;48.884;9.160;2023-01-29T07:57:32;11.15;;;7.80;;
3465;SDS011;1747;48.884;9.160;2023-01-29T07:59:59;10.95;;;6.70;;
3465;SDS011;1747;48.884;9.160;2023-01-29T08:02:26;8.10;;;4.90;;
3465;SDS011;1747;48.884;9.160;2023-01-29T08:04:52;7.38;;;4.47;;
3465;SDS011;1747;48.884;9.160;2023-01-29T08:07:19;8.95;;;4.47;;
3465;SDS011;1747;48.884;9.160;2023-01-29T08:09:48;8.15;;;5.07;;
3465;SDS011;1747;48.884;9.160;2023-01-29T08:12:14;9.25;;;4.75;;
3465;SDS011;1747;48.884;9.160;2023-01-29T08:14:41;8.25;;;4.82;;
3465;SDS011;1747;48.884;9.160;2023-01-29T08:17:09;9.98;;;4.20;;
3465;SDS011;1747;48.884;9.160;2023-01-29T08:19:36;8.77;;;4.65;;
3465;SDS011;1747;48.884;9.160;2023-01-29T08:22:03;8.02;;;5.07;;
3465;SDS011;1747;48.884;9.160;2023-01-29T08:24:30;10.68;;;5.47;;
3465;SDS011;1747;48.884;9.160;2023-01-29T08:26:58;8.80;;;4.70;;
3465;SDS011;1747;48.884;9.160;2023-01-29T08:29:25;13.32;;;7.35;;
3465;SDS011;1747;48.884;9.160;2023-01-29T08:31:52;9.05;;;6.72;;
3465;SDS011;1747;48.884;9.160;2023-01-29T08:34:18;9.75;;;5.72;;
3465;SDS011;1747;48.884;9.160;2023-01-29T08:36:45;10.02;;;5.70;;
3465;SDS011;1747;48.884;9.160;2023-01-29T08:39:12;8.75;;;5.55;;
3465;SDS011;1747;48.884;9.160;2023-01-29T08:41:40;8.18;;;5.07;;
3465;SDS011;1747;48.884;9.160;2023-01-29T08:44:08;8.63;;;5.90;;
3465;SDS011;1747;48.884;9.160;2023-01-29T08:46:35;8.40;;;5.43;;
3465;SDS011;1747;48.884;9.160;2023-01-29T08:49:04;9.50;;;6.72;;
3465;SDS011;1747;48.884;9.160;2023-01-29T08:51:31;9.00;;;5.55;;
3465;SDS011;1747;48.884;9.160;2023-01-29T08:53:58;7.68;;;4.75;;
3465;SDS011;1747;48.884;9.160;2023-01-29T08:56:25;7.80;;;4.88;;
3465;SDS011;1747;48.884;9.160;2023-01-29T08:58:51;9.45;;;5.57;;
3465;SDS011;1747;48.884;9.160;2023-01-29T09:01:20;10.10;;;5.97;;
3465;SDS011;1747;48.884;9.160;2023-01-29T09:03:46;8.50;;;5.20;;
3465;SDS011;1747;48.884;9.160;2023-01-29T09:06:14;7.03;;;5.03;;
3465;SDS011;1747;48.884;9.160;2023-01-29T09:08:41;11.70;;;8.38;;
3465;SDS011;1747;48.884;9.160;2023-01-29T09:11:07;9.20;;;5.45;;
3465;SDS011;1747;48.884;9.160;2023-01-29T09:13:34;10.20;;;5.75;;
3465;SDS011;1747;48.884;9.160;2023-01-29T09:16:02;10.70;;;5.97;;
3465;SDS011;1747;48.884;9.160;2023-01-29T09:18:31;8.48;;;4.72;;
3465;SDS011;1747;48.884;9.160;2023-01-29T09:20:58;10.48;;;5.03;;
3465;SDS011;1747;48.884;9.160;2023-01-29T09:23:26;7.57;;;4.78;;
3465;SDS011;1747;48.884;9.160;2023-01-29T09:25:53;8.75;;;5.18;;
3465;SDS011;1747;48.884;9.160;2023-01-29T09:28:20;9.88;;;4.60;;
3465;SDS011;1747;48.884;9.160;2023-01-29T09:30:47;8.90;;;5.07;;
3465;SDS011;1747;48.884;9.160;2023-01-29T09:33:14;9.20;;;5.35;;
3465;SDS011;1747;48.884;9.160;2023-01-29T09:35:43;8.32;;;4.88;;
3465;SDS011;1747;48.884;9.160;2023-01-29T09:38:11;7.95;;;4.95;;
3465;SDS011;1747;48.884;9.160;2023-01-29T09:40:40;7.53;;;4.32;;
3465;SDS011;1747;48.884;9.160;2023-01-29T09:43:16;7.78;;;4.60;;
3465;SDS011;1747;48.884;9.160;2023-01-29T09:45:49;7.13;;;4.30;;
3465;SDS011;1747;48.884;9.160;2023-01-29T09:48:20;8.13;;;4.50;;
3465;SDS011;1747;48.884;9.160;2023-01-29T09:50:52;7.13;;;4.70;;
3465;SDS011;1747;48.884;9.160;2023-01-29T09:53:24;7.03;;;4.45;;
3465;SDS011;1747;48.884;9.160;2023-01-29T09:55:57;9.32;;;4.68;;
3465;SDS011;1747;48.884;9.160;2023-01-29T09:58:28;8.50;;;4.95;;
3465;SDS011;1747;48.884;9.160;2023-01-29T10:00:59;9.18;;;5.35;;
3465;SDS011;1747;48.884;9.160;2023-01-29T10:06:26;7.10;;;4.95;;
3465;SDS011;1747;48.884;9.160;2023-01-29T10:09:12;7.95;;;4.85;;
3465;SDS011;1747;48.884;9.160;2023-01-29T10:11:59;8.43;;;5.38;;
3465;SDS011;1747;48.884;9.160;2023-01-29T10:14:35;8.07;;;5.63;;
3465;SDS011;1747;48.884;9.160;2023-01-29T10:17:10;7.07;;;4.78;;
3465;SDS011;1747;48.884;9.160;2023-01-29T10:19:56;8.57;;;5.68;;
3465;SDS011;1747;48.884;9.160;2023-01-29T10:22:49;7.00;;;4.68;;
3465;SDS011;1747;48.884;9.160;2023-01-29T10:25:24;8.07;;;5.10;;
3465;SDS011;1747;48.884;9.160;2023-01-29T10:27:51;7.93;;;5.05;;
3465;SDS011;1747;48.884;9.160;2023-01-29T10:30:21;7.25;;;5.18;;
3465;SDS011;1747;48.884;9.160;2023-01-29T10:32:54;8.50;;;5.47;;
3465;SDS011;1747;48.884;9.160;2023-01-29T10:35:23;8.05;;;5.72;;
3465;SDS011;1747;48.884;9.160;2023-01-29T10:37:56;8.57;;;5.72;;
3465;SDS011;1747;48.884;9.160;2023-01-29T10:40:28;8.38;;;5.47;;
3465;SDS011;1747;48.884;9.160;2023-01-29T10:43:03;8.07;;;5.57;;
3465;SDS011;1747;48.884;9.160;2023-01-29T10:45:39;8.63;;;5.28;;
3465;SDS011;1747;48.884;9.160;2023-01-29T10:51:06;8.50;;;6.15;;
3465;SDS011;1747;48.884;9.160;2023-01-29T10:53:47;8.23;;;5.38;;
3465;SDS011;1747;48.884;9.160;2023-01-29T10:56:29;10.07;;;5.85;;
3465;SDS011;1747;48.884;9.160;2023-01-29T10:59:08;9.60;;;5.55;;
3465;SDS011;1747;48.884;9.160;2023-01-29T11:01:50;11.90;;;6.40;;
3465;SDS011;1747;48.884;9.160;2023-01-29T11:04:17;11.57;;;7.80;;
3465;SDS011;1747;48.884;9.160;2023-01-29T11:06:44;8.77;;;6.00;;
3465;SDS011;1747;48.884;9.160;2023-01-29T11:09:16;9.40;;;6.78;;
3465;SDS011;1747;48.884;9.160;2023-01-29T11:11:51;11.05;;;7.18;;
3465;SDS011;1747;48.884;9.160;2023-01-29T11:14:23;9.35;;;6.05;;
3465;SDS011;1747;48.884;9.160;2023-01-29T11:16:55;10.05;;;6.20;;
3465;SDS011;1747;48.884;9.160;2023-01-29T11:19:34;9.45;;;5.85;;
3465;SDS011;1747;48.884;9.160;2023-01-29T11:22:02;9.27;;;5.70;;
3465;SDS011;1747;48.884;9.160;2023-01-29T11:24:31;9.88;;;5.57;;
3465;SDS011;1747;48.884;9.160;2023-01-29T11:26:58;10.20;;;7.38;;
3465;SDS011;1747;48.884;9.160;2023-01-29T11:29:30;11.45;;;6.78;;
3465;SDS011;1747;48.884;9.160;2023-01-29T11:32:10;11.43;;;6.88;;
3465;SDS011;1747;48.884;9.160;2023-01-29T11:34:55;11.93;;;6.53;;
3465;SDS011;1747;48.884;9.160;2023-01-29T11:37:26;10.50;;;6.60;;
3465;SDS011;1747;48.884;9.160;2023-01-29T11:39:59;9.73;;;6.55;;
3465;SDS011;1747;48.884;9.160;2023-01-29T11:42:29;13.70;;;6.75;;
3465;SDS011;1747;48.884;9.160;2023-01-29T11:44:57;11.02;;;6.93;;
3465;SDS011;1747;48.884;9.160;2023-01-29T11:47:25;12.10;;;7.43;;
3465;SDS011;1747;48.884;9.160;2023-01-29T11:49:54;10.55;;;6.97;;
3465;SDS011;1747;48.884;9.160;2023-01-29T11:52:24;11.10;;;7.00;;
3465;SDS011;1747;48.884;9.160;2023-01-29T11:55:01;11.68;;;8.02;;
3465;SDS011;1747;48.884;9.160;2023-01-29T11:57:31;10.85;;;7.00;;
3465;SDS011;1747;48.884;9.160;2023-01-29T12:00:00;10.70;;;6.95;;
3465;SDS011;1747;48.884;9.160;2023-01-29T12:02:32;9.90;;;6.40;;
3465;SDS011;1747;48.884;9.160;2023-01-29T12:05:02;12.07;;;8.02;;
3465;SDS011;1747;48.884;9.160;2023-01-29T12:07:32;12.00;;;7.93;;
3465;SDS011;1747;48.884;9.160;2023-01-29T12:10:01;11.32;;;7.15;;
3465;SDS011;1747;48.884;9.160;2023-01-29T12:12:29;10.07;;;7.05;;
3465;SDS011;1747;48.884;9.160;2023-01-29T12:15:04;12.25;;;7.05;;
3465;SDS011;1747;48.884;9.160;2023-01-29T12:17:41;12.75;;;6.88;;
3465;SDS011;1747;48.884;9.160;2023-01-29T12:20:13;10.98;;;6.78;;
3465;SDS011;1747;48.884;9.160;2023-01-29T12:22:46;9.40;;;6.22;;
3465;SDS011;1747;48.884;9.160;2023-01-29T12:25:21;12.00;;;8.67;;
3465;SDS011;1747;48.884;9.160;2023-01-29T12:27:52;11.52;;;7.70;;
3465;SDS011;1747;48.884;9.160;2023-01-29T12:30:25;11.10;;;6.90;;
3465;SDS011;1747;48.884;9.160;2023-01-29T12:32:58;12.60;;;6.93;;
3465;SDS011;1747;48.884;9.160;2023-01-29T12:35:29;11.13;;;6.90;;
3465;SDS011;1747;48.884;9.160;2023-01-29T12:38:01;11.07;;;6.95;;
3465;SDS011;1747;48.884;9.160;2023-01-29T12:40:33;12.43;;;7.43;;
3465;SDS011;1747;48.884;9.160;2023-01-29T12:43:08;10.52;;;7.00;;
3465;SDS011;1747;48.884;9.160;2023-01-29T12:45:39;10.95;;;6.50;;
3465;SDS011;1747;48.884;9.160;2023-01-29T12:48:09;11.00;;;7.05;;
3465;SDS011;1747;48.884;9.160;2023-01-29T12:50:38;9.88;;;6.63;;
3465;SDS011;1747;48.884;9.160;2023-01-29T12:53:06;11.95;;;7.60;;
3465;SDS011;1747;48.884;9.160;2023-01-29T12:55:48;11.88;;;7.28;;
3465;SDS011;1747;48.884;9.160;2023-01-29T12:58:20;10.95;;;7.22;;
3465;SDS011;1747;48.884;9.160;2023-01-29T13:00:53;10.20;;;6.47;;
3465;SDS011;1747;48.884;9.160;2023-01-29T13:03:23;10.40;;;6.78;;
3465;SDS011;1747;48.884;9.160;2023-01-29T13:05:55;10.77;;;7.32;;
3465;SDS011;1747;48.884;9.160;2023-01-29T13:08:28;10.93;;;6.68;;
3465;SDS011;1747;48.884;9.160;2023-01-29T13:11:01;9.27;;;6.40;;
3465;SDS011;1747;48.884;9.160;2023-01-29T13:13:33;12.20;;;7.53;;
3465;SDS011;1747;48.884;9.160;2023-01-29T13:16:04;9.65;;;6.85;;
3465;SDS011;1747;48.884;9.160;2023-01-29T13:18:36;12.35;;;7.57;;
3465;SDS011;1747;48.884;9.160;2023-01-29T13:21:09;10.95;;;6.85;;
3465;SDS011;1747;48.884;9.160;2023-01-29T13:23:40;11.18;;;7.70;;
3465;SDS011;1747;48.884;9.160;2023-01-29T13:26:12;11.13;;;7.38;;
3465;SDS011;1747;48.884;9.160;2023-01-29T13:28:43;11.60;;;6.95;;
3465;SDS011;1747;48.884;9.160;2023-01-29T13:31:21;14.68;;;7.70;;
3465;SDS011;1747;48.884;9.160;2023-01-29T13:33:54;9.55;;;6.85;;
3465;SDS011;1747;48.884;9.160;2023-01-29T13:36:26;12.52;;;7.30;;
3465;SDS011;1747;48.884;9.160;2023-01-29T13:38:57;12.15;;;7.20;;
3465;SDS011;1747;48.884;9.160;2023-01-29T13:41:32;13.00;;;7.88;;
3465;SDS011;1747;48.884;9.160;2023-01-29T13:44:03;13.18;;;8.02;;
3465;SDS011;1747;48.884;9.160;2023-01-29T13:46:32;10.20;;;6.80;;
3465;SDS011;1747;48.884;9.160;2023-01-29T13:48:59;11.32;;;7.35;;
3465;SDS011;1747;48.884;9.160;2023-01-29T13:51:31;11.30;;;7.47;;
3465;SDS011;1747;48.884;9.160;2023-01-29T13:54:13;13.07;;;8.90;;
3465;SDS011;1747;48.884;9.160;2023-01-29T13:56:55;11.77;;;8.23;;
3465;SDS011;1747;48.884;9.160;2023-01-29T13:59:47;14.52;;;7.80;;
3465;SDS011;1747;48.884;9.160;2023-01-29T14:02:19;11.88;;;7.35;;
3465;SDS011;1747;48.884;9.160;2023-01-29T14:04:50;9.80;;;6.75;;
3465;SDS011;1747;48.884;9.160;2023-01-29T14:07:49;10.93;;;6.95;;
3465;SDS011;1747;48.884;9.160;2023-01-29T14:10:17;11.95;;;7.40;;
3465;SDS011;1747;48.884;9.160;2023-01-29T14:12:48;10.52;;;6.80;;
3465;SDS011;1747;48.884;9.160;2023-01-29T14:15:21;11.18;;;7.38;;
3465;SDS011;1747;48.884;9.160;2023-01-29T14:17:54;11.38;;;7.72;;
3465;SDS011;1747;48.884;9.160;2023-01-29T14:20:29;10.32;;;7.05;;
3465;SDS011;1747;48.884;9.160;2023-01-29T14:22:58;12.55;;;7.00;;
3465;SDS011;1747;48.884;9.160;2023-01-29T14:25:28;11.00;;;7.15;;
3465;SDS011;1747;48.884;9.160;2023-01-29T14:27:58;11.93;;;7.63;;
3465;SDS011;1747;48.884;9.160;2023-01-29T14:30:28;9.82;;;6.72;;
3465;SDS011;1747;48.884;9.160;2023-01-29T14:32:57;10.23;;;7.05;;
3465;SDS011;1747;48.884;9.160;2023-01-29T14:35:26;9.95;;;6.82;;
3465;SDS011;1747;48.884;9.160;2023-01-29T14:37:59;10.30;;;6.72;;
3465;SDS011;1747;48.884;9.160;2023-01-29T14:40:30;17.08;;;6.82;;
3465;SDS011;1747;48.884;9.160;2023-01-29T14:43:02;12.43;;;6.68;;
3465;SDS011;1747;48.884;9.160;2023-01-29T14:45:33;11.98;;;7.35;;
3465;SDS011;1747;48.884;9.160;2023-01-29T14:48:04;10.60;;;6.72;;
3465;SDS011;1747;48.884;9.160;2023-01-29T14:51:04;9.60;;;6.55;;
3465;SDS011;1747;48.884;9.160;2023-01-29T14:53:42;9.10;;;6.07;;
3465;SDS011;1747;48.884;9.160;2023-01-29T14:56:25;11.00;;;6.68;;
3465;SDS011;1747;48.884;9.160;2023-01-29T14:59:01;11.43;;;6.57;;
3465;SDS011;1747;48.884;9.160;2023-01-29T15:01:38;10.18;;;7.00;;
3465;SDS011;1747;48.884;9.160;2023-01-29T15:04:12;10.88;;;7.00;;
3465;SDS011;1747;48.884;9.160;2023-01-29T15:06:43;10.85;;;6.65;;
3465;SDS011;1747;48.884;9.160;2023-01-29T15:09:13;12.00;;;7.45;;
3465;SDS011;1747;48.884;9.160;2023-01-29T15:11:46;15.73;;;7.13;;
3465;SDS011;1747;48.884;9.160;2023-01-29T15:14:20;11.85;;;6.90;;
3465;SDS011;1747;48.884;9.160;2023-01-29T15:16:55;15.93;;;6.80;;
3465;SDS011;1747;48.884;9.160;2023-01-29T15:19:28;12.25;;;7.05;;
3465;SDS011;1747;48.884;9.160;2023-01-29T15:22:05;9.73;;;6.25;;
3465;SDS011;1747;48.884;9.160;2023-01-29T15:24:43;13.43;;;7.90;;
3465;SDS011;1747;48.884;9.160;2023-01-29T15:27:14;13.05;;;7.07;;
3465;SDS011;1747;48.884;9.160;2023-01-29T15:29:49;10.57;;;6.93;;
3465;SDS011;1747;48.884;9.160;2023-01-29T15:32:24;11.25;;;6.63;;
3465;SDS011;1747;48.884;9.160;2023-01-29T15:34:54;10.18;;;6.57;;
3465;SDS011;1747;48.884;9.160;2023-01-29T15:37:24;13.55;;;7.00;;
3465;SDS011;1747;48.884;9.160;2023-01-29T15:39:53;11.63;;;6.30;;
3465;SDS011;1747;48.884;9.160;2023-01-29T15:42:25;11.95;;;6.50;;